createdAt,value
2022-11-08T00:00:48.189Z,2.70
2022-11-08T00:01:50.264Z,2.70
2022-11-08T00:02:52.166Z,2.70
2022-11-08T00:03:54.834Z,2.80
2022-11-08T00:04:56.542Z,2.80
2022-11-08T00:06:21.612Z,2.70
2022-11-08T00:07:42.092Z,2.70
2022-11-08T00:09:02.459Z,2.80
2022-11-08T00:10:23.510Z,2.80
2022-11-08T00:11:44.433Z,2.80
2022-11-08T00:13:05.035Z,2.80
2022-11-08T00:14:06.740Z,2.80
2022-11-08T00:15:09.391Z,2.70
2022-11-08T00:16:11.257Z,2.70
2022-11-08T00:17:15.153Z,2.70
2022-11-08T00:18:17.241Z,2.80
2022-11-08T00:19:19.493Z,2.70
2022-11-08T00:20:21.385Z,2.70
2022-11-08T00:21:23.559Z,2.70
2022-11-08T00:22:29.209Z,2.70
2022-11-08T00:23:30.946Z,2.70
2022-11-08T00:24:32.956Z,2.70
2022-11-08T00:25:35.860Z,2.50
2022-11-08T00:26:38.017Z,2.30
2022-11-08T00:27:41.034Z,2.30
2022-11-08T00:28:42.761Z,2.80
2022-11-08T00:29:45.427Z,2.60
2022-11-08T00:30:47.180Z,2.60
2022-11-08T00:31:48.962Z,2.70
2022-11-08T00:32:50.832Z,2.60
2022-11-08T00:33:52.717Z,2.60
2022-11-08T00:34:54.799Z,2.60
2022-11-08T00:35:59.421Z,2.80
2022-11-08T00:37:01.691Z,2.60
2022-11-08T00:38:05.901Z,2.60
2022-11-08T00:39:08.120Z,2.60
2022-11-08T00:40:10.744Z,2.60
2022-11-08T00:41:13.656Z,2.60
2022-11-08T00:42:16.021Z,2.60
2022-11-08T00:43:17.782Z,2.70
2022-11-08T00:44:20.038Z,2.70
2022-11-08T00:45:22.047Z,2.60
2022-11-08T00:46:24.611Z,2.60
2022-11-08T00:47:26.318Z,2.60
2022-11-08T00:48:28.372Z,2.60
2022-11-08T00:49:30.357Z,2.60
2022-11-08T00:50:35.029Z,2.60
2022-11-08T00:51:37.584Z,2.60
2022-11-08T00:52:39.479Z,2.60
2022-11-08T00:53:41.547Z,2.60
2022-11-08T00:54:43.566Z,2.60
2022-11-08T00:55:45.378Z,2.60
2022-11-08T00:56:48.380Z,2.60
2022-11-08T00:58:05.195Z,2.60
2022-11-08T00:59:07.138Z,2.60
2022-11-08T01:00:10.215Z,2.60
2022-11-08T01:01:18.284Z,2.60
2022-11-08T01:02:20.149Z,2.60
2022-11-08T01:03:24.472Z,2.60
2022-11-08T01:05:41.928Z,2.50
2022-11-08T01:06:43.926Z,2.50
2022-11-08T01:07:45.773Z,2.50
2022-11-08T01:08:52.525Z,2.50
2022-11-08T01:09:54.812Z,2.50
2022-11-08T01:10:56.879Z,2.60
2022-11-08T01:11:58.894Z,2.50
2022-11-08T01:13:01.872Z,2.50
2022-11-08T01:14:03.718Z,2.50
2022-11-08T01:15:05.746Z,2.50
2022-11-08T01:16:10.278Z,2.50
2022-11-08T01:17:12.139Z,2.50
2022-11-08T01:18:17.091Z,2.50
2022-11-08T01:19:19.276Z,2.50
2022-11-08T01:20:21.538Z,2.80
2022-11-08T01:21:25.520Z,2.60
2022-11-08T01:22:28.791Z,2.50
2022-11-08T01:23:31.029Z,2.50
2022-11-08T01:24:34.753Z,2.50
2022-11-08T01:25:41.841Z,2.70
2022-11-08T01:26:43.710Z,2.90
2022-11-08T01:27:45.871Z,2.90
2022-11-08T01:28:48.758Z,3.00
2022-11-08T01:29:50.715Z,3.10
2022-11-08T01:30:55.563Z,3.00
2022-11-08T01:31:57.275Z,3.00
2022-11-08T01:32:59.755Z,3.00
2022-11-08T01:34:01.736Z,2.70
2022-11-08T01:35:03.906Z,3.10
2022-11-08T01:36:14.407Z,3.50
2022-11-08T01:37:16.267Z,3.60
2022-11-08T01:38:18.157Z,3.50
2022-11-08T01:39:21.243Z,3.60
2022-11-08T01:40:22.946Z,3.60
2022-11-08T01:41:26.676Z,3.80
2022-11-08T01:42:32.468Z,3.90
2022-11-08T01:44:04.029Z,4.10
2022-11-08T01:45:08.463Z,4.50
2022-11-08T01:46:12.757Z,4.50
2022-11-08T01:47:16.298Z,4.50
2022-11-08T01:48:18.804Z,4.60
2022-11-08T01:49:45.830Z,4.70
2022-11-08T01:50:50.877Z,5.10
2022-11-08T01:52:01.068Z,4.90
2022-11-08T01:53:02.875Z,4.90
2022-11-08T01:54:10.843Z,5.00
2022-11-08T01:55:22.350Z,5.20
2022-11-08T01:56:24.800Z,5.30
2022-11-08T01:57:35.926Z,5.10
2022-11-08T01:58:41.704Z,5.40
2022-11-08T01:59:48.316Z,5.30
2022-11-08T02:00:52.172Z,5.50
2022-11-08T02:01:54.288Z,5.30
2022-11-08T02:02:59.922Z,5.00
2022-11-08T02:04:04.051Z,5.40
2022-11-08T02:05:41.675Z,5.30
2022-11-08T02:06:44.618Z,5.60
2022-11-08T02:07:46.670Z,5.70
2022-11-08T02:08:48.818Z,5.70
2022-11-08T02:09:50.734Z,5.80
2022-11-08T02:10:54.011Z,5.60
2022-11-08T02:11:58.166Z,5.60
2022-11-08T02:13:04.624Z,5.30
2022-11-08T02:14:08.444Z,5.60
2022-11-08T02:15:11.081Z,5.60
2022-11-08T02:16:15.813Z,5.40
2022-11-08T02:17:17.953Z,5.60
2022-11-08T02:18:23.311Z,5.70
2022-11-08T02:19:41.555Z,5.70
2022-11-08T02:20:49.547Z,5.40
2022-11-08T02:21:58.599Z,5.40
2022-11-08T02:23:18.838Z,5.30
2022-11-08T02:24:21.372Z,5.20
2022-11-08T02:25:24.479Z,5.40
2022-11-08T02:26:34.232Z,5.30
2022-11-08T02:27:36.191Z,5.60
2022-11-08T02:28:45.981Z,5.60
2022-11-08T02:29:47.964Z,5.80
2022-11-08T02:30:49.924Z,5.80
2022-11-08T02:31:53.883Z,5.70
2022-11-08T02:32:55.722Z,5.80
2022-11-08T02:33:57.864Z,5.60
2022-11-08T02:34:59.980Z,5.40
2022-11-08T02:36:03.144Z,5.10
2022-11-08T02:37:06.626Z,5.40
2022-11-08T02:38:08.475Z,5.30
2022-11-08T02:39:12.876Z,5.40
2022-11-08T02:40:23.325Z,5.20
2022-11-08T02:41:26.675Z,4.90
2022-11-08T02:42:28.569Z,4.70
2022-11-08T02:43:31.146Z,4.60
2022-11-08T02:44:33.000Z,4.60
2022-11-08T02:45:34.687Z,4.90
2022-11-08T02:46:36.427Z,5.00
2022-11-08T02:47:38.457Z,5.10
2022-11-08T02:48:41.619Z,5.00
2022-11-08T02:49:43.841Z,4.90
2022-11-08T02:50:48.907Z,4.60
2022-11-08T02:51:52.981Z,4.80
2022-11-08T02:52:55.973Z,5.10
2022-11-08T02:53:57.758Z,5.10
2022-11-08T02:54:59.780Z,4.90
2022-11-08T02:56:02.301Z,4.70
2022-11-08T02:57:04.176Z,4.80
2022-11-08T02:58:06.127Z,4.90
2022-11-08T02:59:07.888Z,4.90
2022-11-08T03:00:13.481Z,5.00
2022-11-08T03:01:15.836Z,5.20
2022-11-08T03:02:17.818Z,5.00
2022-11-08T03:03:19.630Z,5.00
2022-11-08T03:04:21.470Z,5.00
2022-11-08T03:05:34.009Z,5.20
2022-11-08T03:06:35.700Z,5.10
2022-11-08T03:07:39.906Z,5.10
2022-11-08T03:08:41.615Z,4.70
2022-11-08T03:09:45.590Z,4.90
2022-11-08T03:10:47.318Z,4.90
2022-11-08T03:11:54.076Z,4.90
2022-11-08T03:13:01.599Z,4.80
2022-11-08T03:14:03.945Z,4.80
2022-11-08T03:15:10.037Z,4.20
2022-11-08T03:16:11.853Z,4.30
2022-11-08T03:17:13.697Z,4.40
2022-11-08T03:18:15.889Z,4.40
2022-11-08T03:19:17.891Z,4.40
2022-11-08T03:20:22.251Z,4.40
2022-11-08T03:21:24.244Z,4.60
2022-11-08T03:22:26.319Z,4.60
2022-11-08T03:23:28.457Z,4.10
2022-11-08T03:24:30.485Z,4.30
2022-11-08T03:25:33.205Z,4.50
2022-11-08T03:26:35.129Z,4.40
2022-11-08T03:27:37.262Z,4.20
2022-11-08T03:28:39.182Z,4.30
2022-11-08T03:29:41.812Z,4.20
2022-11-08T03:30:43.623Z,4.60
2022-11-08T03:31:46.148Z,4.70
2022-11-08T03:32:49.879Z,4.60
2022-11-08T03:33:54.093Z,4.70
2022-11-08T03:34:55.889Z,4.70
2022-11-08T03:35:57.880Z,4.70
2022-11-08T03:36:59.574Z,4.80
2022-11-08T03:38:01.353Z,5.20
2022-11-08T03:39:03.142Z,5.10
2022-11-08T03:40:06.048Z,5.00
2022-11-08T03:41:07.891Z,5.00
2022-11-08T03:42:09.897Z,4.80
2022-11-08T03:43:11.689Z,4.60
2022-11-08T03:44:13.742Z,4.90
2022-11-08T03:45:16.864Z,5.10
2022-11-08T03:46:18.780Z,4.90
2022-11-08T03:47:20.646Z,5.10
2022-11-08T03:48:25.425Z,5.40
2022-11-08T03:49:28.364Z,5.30
2022-11-08T03:50:30.075Z,4.90
2022-11-08T03:51:32.197Z,5.10
2022-11-08T03:52:45.898Z,5.10
2022-11-08T03:53:47.760Z,5.40
2022-11-08T03:54:49.807Z,5.50
2022-11-08T03:55:51.696Z,5.30
2022-11-08T03:56:53.408Z,5.30
2022-11-08T03:57:56.883Z,5.20
2022-11-08T03:58:58.596Z,5.10
2022-11-08T04:00:02.043Z,5.00
2022-11-08T04:01:05.962Z,4.80
2022-11-08T04:02:07.933Z,5.20
2022-11-08T04:03:10.072Z,4.60
2022-11-08T04:04:11.914Z,4.40
2022-11-08T04:05:17.784Z,3.90
2022-11-08T04:06:20.481Z,4.10
2022-11-08T04:07:22.390Z,4.00
2022-11-08T04:08:25.601Z,4.00
2022-11-08T04:09:27.503Z,4.00
2022-11-08T04:10:29.386Z,4.20
2022-11-08T04:11:49.805Z,4.20
2022-11-08T04:13:10.254Z,4.00
2022-11-08T04:14:31.543Z,4.10
2022-11-08T04:15:33.376Z,3.60
2022-11-08T04:16:36.665Z,4.00
2022-11-08T04:17:57.333Z,4.00
2022-11-08T04:19:21.211Z,4.10
2022-11-08T04:21:01.654Z,3.90
2022-11-08T04:22:03.567Z,4.10
2022-11-08T04:23:05.618Z,4.10
2022-11-08T04:24:07.704Z,4.20
2022-11-08T04:25:09.598Z,4.30
2022-11-08T04:26:14.171Z,4.30
2022-11-08T04:27:15.939Z,4.10
2022-11-08T04:28:17.828Z,4.30
2022-11-08T04:29:19.953Z,4.30
2022-11-08T04:30:21.711Z,4.40
2022-11-08T04:31:25.299Z,4.30
2022-11-08T04:32:28.385Z,4.00
2022-11-08T04:33:31.119Z,4.10
2022-11-08T04:34:32.832Z,4.10
2022-11-08T04:35:34.681Z,4.20
2022-11-08T04:36:37.739Z,4.10
2022-11-08T04:37:40.646Z,4.10
2022-11-08T04:38:42.749Z,4.00
2022-11-08T04:39:44.579Z,3.90
2022-11-08T04:40:46.790Z,4.10
2022-11-08T04:41:48.879Z,3.90
2022-11-08T04:42:51.904Z,4.00
2022-11-08T04:43:56.119Z,4.00
2022-11-08T04:44:58.063Z,3.90
2022-11-08T04:46:07.305Z,3.90
2022-11-08T04:47:10.650Z,3.50
2022-11-08T04:48:12.487Z,3.60
2022-11-08T04:49:14.271Z,3.90
2022-11-08T04:50:16.976Z,4.00
2022-11-08T04:51:26.925Z,3.90
2022-11-08T04:52:28.783Z,4.00
2022-11-08T04:53:30.961Z,3.90
2022-11-08T04:54:33.669Z,3.60
2022-11-08T04:55:37.341Z,3.90
2022-11-08T04:56:39.150Z,3.70
2022-11-08T04:57:40.984Z,3.60
2022-11-08T04:58:48.255Z,3.60
2022-11-08T04:59:50.655Z,3.50
2022-11-08T05:00:52.547Z,3.30
2022-11-08T05:01:54.412Z,3.30
2022-11-08T05:02:56.508Z,3.40
2022-11-08T05:04:00.834Z,3.50
2022-11-08T05:05:02.756Z,3.50
2022-11-08T05:06:15.516Z,3.90
2022-11-08T05:07:17.252Z,4.00
2022-11-08T05:08:19.329Z,3.90
2022-11-08T05:09:21.344Z,4.00
2022-11-08T05:10:23.141Z,4.00
2022-11-08T05:11:27.636Z,4.00
2022-11-08T05:12:29.280Z,4.00
2022-11-08T05:13:31.733Z,4.10
2022-11-08T05:14:33.520Z,4.00
2022-11-08T05:15:36.379Z,4.00
2022-11-08T05:16:38.085Z,4.00
2022-11-08T05:17:40.329Z,4.00
2022-11-08T05:18:42.422Z,4.00
2022-11-08T05:20:03.557Z,3.80
2022-11-08T05:21:24.568Z,3.70
2022-11-08T05:22:44.911Z,3.60
2022-11-08T05:23:48.361Z,3.50
2022-11-08T05:24:50.176Z,3.60
2022-11-08T05:25:54.246Z,3.80
2022-11-08T05:26:55.931Z,3.90
2022-11-08T05:27:57.799Z,3.80
2022-11-08T05:28:59.610Z,3.80
2022-11-08T05:30:04.493Z,3.70
2022-11-08T05:31:07.096Z,3.70
2022-11-08T05:32:08.835Z,4.00
2022-11-08T05:33:10.704Z,3.70
2022-11-08T05:34:12.885Z,3.60
2022-11-08T05:35:14.666Z,3.80
2022-11-08T05:36:17.147Z,3.70
2022-11-08T05:37:21.508Z,4.00
2022-11-08T05:38:23.388Z,4.20
2022-11-08T05:39:31.937Z,4.10
2022-11-08T05:40:34.278Z,4.10
2022-11-08T05:41:37.164Z,4.20
2022-11-08T05:42:39.004Z,4.10
2022-11-08T05:43:40.927Z,4.20
2022-11-08T05:44:42.631Z,4.30
2022-11-08T05:45:48.586Z,4.20
2022-11-08T05:46:50.968Z,4.10
2022-11-08T05:47:53.061Z,4.10
2022-11-08T05:48:54.949Z,4.10
2022-11-08T05:49:57.003Z,4.20
2022-11-08T05:50:58.966Z,4.00
2022-11-08T05:52:02.239Z,4.10
2022-11-08T05:53:04.435Z,4.00
2022-11-08T05:54:08.207Z,3.90
2022-11-08T05:55:10.528Z,4.00
2022-11-08T05:56:13.343Z,3.70
2022-11-08T05:57:18.752Z,3.60
2022-11-08T05:58:23.247Z,3.80
2022-11-08T05:59:25.262Z,3.60
2022-11-08T06:00:27.366Z,3.70
2022-11-08T06:01:29.300Z,3.60
2022-11-08T06:02:33.118Z,3.60
2022-11-08T06:03:36.111Z,3.90
2022-11-08T06:04:38.869Z,3.80
2022-11-08T06:05:46.372Z,3.80
2022-11-08T06:06:50.436Z,3.90
2022-11-08T06:07:55.227Z,3.90
2022-11-08T06:08:59.423Z,3.90
2022-11-08T06:10:01.437Z,3.80
2022-11-08T06:11:09.373Z,3.60
2022-11-08T06:12:11.166Z,4.30
2022-11-08T06:13:13.082Z,3.70
2022-11-08T06:14:17.357Z,3.70
2022-11-08T06:15:19.185Z,3.70
2022-11-08T06:16:22.808Z,3.70
2022-11-08T06:17:26.240Z,3.90
2022-11-08T06:18:32.436Z,3.50
2022-11-08T06:19:35.515Z,3.50
2022-11-08T06:20:37.329Z,3.40
2022-11-08T06:21:39.122Z,3.20
2022-11-08T06:22:40.997Z,2.90
2022-11-08T06:23:43.274Z,2.90
2022-11-08T06:24:45.168Z,3.00
2022-11-08T06:25:47.787Z,3.10
2022-11-08T06:26:49.770Z,3.00
2022-11-08T06:27:51.631Z,2.90
2022-11-08T06:28:53.515Z,2.70
2022-11-08T06:29:55.303Z,2.60
2022-11-08T06:31:01.291Z,2.60
2022-11-08T06:32:03.554Z,2.70
2022-11-08T06:33:05.375Z,2.60
2022-11-08T06:34:07.255Z,2.60
2022-11-08T06:35:10.706Z,2.90
2022-11-08T06:36:12.497Z,3.00
2022-11-08T06:37:14.747Z,2.70
2022-11-08T06:38:16.499Z,2.80
2022-11-08T06:39:18.502Z,2.70
2022-11-08T06:40:20.359Z,2.90
2022-11-08T06:41:22.565Z,3.40
2022-11-08T06:42:24.651Z,3.40
2022-11-08T06:43:26.913Z,3.40
2022-11-08T06:44:29.089Z,3.40
2022-11-08T06:45:31.106Z,3.30
2022-11-08T06:46:32.786Z,3.20
2022-11-08T06:47:34.476Z,2.90
2022-11-08T06:48:36.434Z,3.20
2022-11-08T06:49:38.309Z,3.20
2022-11-08T06:50:41.478Z,3.30
2022-11-08T06:51:43.508Z,3.30
2022-11-08T06:52:45.637Z,3.40
2022-11-08T06:53:47.813Z,3.60
2022-11-08T06:54:49.466Z,3.50
2022-11-08T06:55:51.472Z,3.30
2022-11-08T06:56:55.974Z,3.20
2022-11-08T06:57:58.228Z,3.30
2022-11-08T06:59:00.137Z,3.10
2022-11-08T07:00:02.115Z,3.00
2022-11-08T07:01:08.913Z,2.90
2022-11-08T07:02:11.687Z,3.10
2022-11-08T07:03:15.820Z,3.20
2022-11-08T07:04:29.784Z,3.40
2022-11-08T07:05:33.336Z,3.40
2022-11-08T07:06:35.375Z,3.20
2022-11-08T07:07:37.596Z,3.30
2022-11-08T07:08:39.464Z,3.40
2022-11-08T07:09:41.336Z,3.70
2022-11-08T07:10:43.359Z,3.60
2022-11-08T07:11:45.094Z,3.40
2022-11-08T07:12:47.921Z,3.50
2022-11-08T07:13:49.996Z,4.10
2022-11-08T07:14:51.717Z,3.90
2022-11-08T07:15:56.799Z,3.40
2022-11-08T07:16:58.806Z,2.90
2022-11-08T07:18:06.863Z,3.20
2022-11-08T07:19:08.833Z,3.50
2022-11-08T07:20:11.254Z,3.00
2022-11-08T07:21:12.952Z,3.10
2022-11-08T07:22:14.805Z,3.30
2022-11-08T07:23:16.591Z,3.70
2022-11-08T07:24:18.301Z,3.80
2022-11-08T07:25:20.159Z,3.60
2022-11-08T07:26:22.087Z,3.30
2022-11-08T07:27:23.761Z,3.30
2022-11-08T07:28:25.608Z,3.70
2022-11-08T07:29:27.466Z,3.50
2022-11-08T07:30:29.921Z,3.10
2022-11-08T07:31:31.579Z,2.80
2022-11-08T07:32:33.570Z,3.00
2022-11-08T07:33:35.657Z,3.00
2022-11-08T07:34:37.708Z,3.00
2022-11-08T07:35:39.781Z,3.00
2022-11-08T07:36:41.721Z,3.30
2022-11-08T07:37:43.507Z,3.90
2022-11-08T07:38:45.250Z,3.90
2022-11-08T07:39:46.976Z,3.60
2022-11-08T07:40:48.962Z,3.10
2022-11-08T07:41:50.626Z,2.70
2022-11-08T07:44:14.918Z,3.10
2022-11-08T07:45:16.866Z,3.60
2022-11-08T07:46:18.651Z,3.60
2022-11-08T07:47:20.467Z,3.30
2022-11-08T07:48:23.102Z,3.30
2022-11-08T07:49:24.816Z,2.80
2022-11-08T07:50:27.154Z,2.60
2022-11-08T07:51:28.987Z,2.40
2022-11-08T07:52:30.934Z,3.10
2022-11-08T07:53:32.972Z,2.30
2022-11-08T07:54:34.994Z,1.80
2022-11-08T07:55:38.078Z,2.30
2022-11-08T07:56:39.952Z,2.30
2022-11-08T07:57:41.887Z,2.50
2022-11-08T07:58:43.607Z,2.10
2022-11-08T07:59:45.337Z,2.30
2022-11-08T08:00:49.892Z,2.40
2022-11-08T08:01:51.830Z,1.70
2022-11-08T08:03:01.204Z,1.70
2022-11-08T08:04:05.211Z,1.70
2022-11-08T08:05:07.405Z,1.70
2022-11-08T08:06:09.263Z,1.70
2022-11-08T08:07:12.431Z,1.40
2022-11-08T08:08:14.416Z,1.30
2022-11-08T08:09:16.077Z,1.70
2022-11-08T08:10:17.750Z,1.70
2022-11-08T08:11:19.708Z,1.80
2022-11-08T08:12:21.410Z,1.70
2022-11-08T08:13:23.084Z,1.70
2022-11-08T08:14:24.803Z,1.70
2022-11-08T08:15:26.682Z,1.70
2022-11-08T08:16:28.347Z,1.70
2022-11-08T08:17:29.994Z,1.70
2022-11-08T08:18:31.828Z,1.80
2022-11-08T08:19:33.482Z,1.80
2022-11-08T08:20:37.092Z,1.80
2022-11-08T08:21:38.968Z,1.80
2022-11-08T08:22:48.449Z,1.80
2022-11-08T08:23:50.246Z,1.80
2022-11-08T08:24:51.892Z,1.90
2022-11-08T08:25:53.801Z,1.70
2022-11-08T08:26:55.504Z,1.40
2022-11-08T08:28:00.721Z,1.60
2022-11-08T08:29:02.403Z,1.90
2022-11-08T08:30:06.303Z,1.70
2022-11-08T08:31:08.201Z,1.70
2022-11-08T08:32:09.924Z,1.50
2022-11-08T08:33:32.477Z,1.30
2022-11-08T08:34:34.266Z,1.40
2022-11-08T08:35:37.414Z,1.10
2022-11-08T08:36:39.410Z,1.00
2022-11-08T08:37:41.337Z,1.00
2022-11-08T08:38:44.813Z,1.00
2022-11-08T08:39:47.067Z,1.00
2022-11-08T08:40:49.183Z,1.00
2022-11-08T08:41:51.075Z,1.00
2022-11-08T08:42:52.763Z,1.00
2022-11-08T08:43:55.656Z,1.00
2022-11-08T08:44:57.451Z,1.00
2022-11-08T08:46:01.146Z,1.00
2022-11-08T08:47:03.016Z,1.00
2022-11-08T08:48:08.723Z,1.00
2022-11-08T08:49:10.608Z,1.00
2022-11-08T08:50:12.652Z,1.00
2022-11-08T08:51:14.528Z,1.00
2022-11-08T08:52:16.376Z,1.00
2022-11-08T08:53:18.518Z,1.00
2022-11-08T08:54:22.014Z,1.00
2022-11-08T08:55:25.661Z,1.00
2022-11-08T08:56:27.730Z,1.00
2022-11-08T08:57:29.703Z,1.00
2022-11-08T08:58:31.444Z,1.00
2022-11-08T09:02:22.960Z,1.00
2022-11-08T09:03:26.430Z,1.00
2022-11-08T09:04:28.875Z,1.00
2022-11-08T09:05:31.548Z,1.00
2022-11-08T09:06:33.702Z,1.00
2022-11-08T09:07:35.664Z,1.00
2022-11-08T09:08:37.705Z,1.00
2022-11-08T09:09:39.497Z,1.00
2022-11-08T09:10:41.419Z,1.00
2022-11-08T09:11:43.437Z,1.00
2022-11-08T09:12:45.145Z,1.00
2022-11-08T09:13:46.931Z,1.00
2022-11-08T09:14:48.729Z,1.00
2022-11-08T09:15:51.765Z,1.00
2022-11-08T09:16:53.522Z,1.00
2022-11-08T09:17:55.693Z,1.00
2022-11-08T09:18:57.725Z,1.00
2022-11-08T09:20:00.496Z,1.00
2022-11-08T09:21:04.387Z,1.00
2022-11-08T09:22:07.950Z,1.00
2022-11-08T09:23:11.870Z,1.00
2022-11-08T09:24:13.793Z,1.00
2022-11-08T09:25:15.898Z,1.00
2022-11-08T09:26:17.813Z,1.00
2022-11-08T09:27:19.629Z,1.00
2022-11-08T09:28:21.553Z,1.00
2022-11-08T09:29:23.396Z,1.00
2022-11-08T09:30:26.396Z,1.00
2022-11-08T09:31:28.304Z,1.00
2022-11-08T09:32:46.664Z,1.00
2022-11-08T09:33:51.846Z,1.00
2022-11-08T09:34:54.643Z,1.00
2022-11-08T09:35:56.701Z,1.00
2022-11-08T09:36:58.769Z,1.00
2022-11-08T09:38:00.691Z,1.00
2022-11-08T09:39:02.692Z,1.00
2022-11-08T09:40:04.811Z,1.00
2022-11-08T09:41:19.325Z,1.00
2022-11-08T09:42:54.488Z,1.00
2022-11-08T09:44:14.507Z,1.00
2022-11-08T09:45:27.730Z,1.00
2022-11-08T09:46:48.846Z,1.00
2022-11-08T09:47:57.777Z,1.00
2022-11-08T09:49:01.446Z,1.00
2022-11-08T09:50:05.939Z,1.00
2022-11-08T09:51:13.413Z,1.00
2022-11-08T09:52:25.219Z,1.00
2022-11-08T09:53:50.289Z,1.00
2022-11-08T09:55:01.344Z,1.00
2022-11-08T09:56:16.786Z,1.00
2022-11-08T09:57:34.929Z,1.00
2022-11-08T09:58:45.670Z,1.00
2022-11-08T09:59:55.070Z,1.00
2022-11-08T10:00:57.228Z,1.00
2022-11-08T10:01:59.026Z,1.00
2022-11-08T10:03:02.524Z,1.00
2022-11-08T10:04:17.871Z,1.00
2022-11-08T10:05:21.090Z,1.00
2022-11-08T10:06:40.187Z,1.00
2022-11-08T10:07:58.069Z,1.00
2022-11-08T10:09:30.018Z,1.00
2022-11-08T10:10:38.292Z,1.00
2022-11-08T10:11:52.307Z,1.00
2022-11-08T10:13:12.310Z,1.00
2022-11-08T10:14:28.773Z,1.00
2022-11-08T10:15:38.526Z,1.00
2022-11-08T10:17:08.201Z,1.00
2022-11-08T10:18:32.292Z,1.00
2022-11-08T10:20:06.854Z,1.00
2022-11-08T10:21:36.796Z,1.00
2022-11-08T10:23:10.552Z,1.00
2022-11-08T10:24:33.763Z,1.00
2022-11-08T10:25:57.757Z,1.00
2022-11-08T10:27:00.641Z,1.00
2022-11-08T10:28:04.913Z,1.00
2022-11-08T10:29:23.632Z,1.00
2022-11-08T10:30:36.442Z,1.00
2022-11-08T10:31:39.875Z,1.00
2022-11-08T10:32:42.276Z,1.00
2022-11-08T10:33:50.501Z,1.00
2022-11-08T10:35:02.106Z,1.00
2022-11-08T10:36:13.243Z,1.00
2022-11-08T10:37:23.080Z,1.00
2022-11-08T10:38:33.839Z,1.00
2022-11-08T10:39:42.747Z,1.00
2022-11-08T10:41:04.681Z,1.00
2022-11-08T10:42:10.706Z,1.00
2022-11-08T10:43:23.328Z,1.00
2022-11-08T10:44:28.373Z,1.00
2022-11-08T10:45:30.150Z,1.00
2022-11-08T10:46:37.792Z,1.00
2022-11-08T10:47:40.939Z,1.00
2022-11-08T10:48:42.846Z,1.00
2022-11-08T10:49:44.801Z,1.00
2022-11-08T10:50:51.596Z,1.00
2022-11-08T10:51:55.984Z,1.00
2022-11-08T10:53:03.125Z,1.00
2022-11-08T10:55:28.351Z,1.00
2022-11-08T10:56:33.045Z,1.00
2022-11-08T10:57:45.178Z,1.00
2022-11-08T10:58:48.674Z,1.00
2022-11-08T10:59:52.002Z,1.00
2022-11-08T11:01:07.808Z,1.00
2022-11-08T11:02:32.283Z,1.00
2022-11-08T11:03:35.020Z,1.00
2022-11-08T11:04:39.591Z,1.00
2022-11-08T11:06:30.090Z,1.00
2022-11-08T11:07:36.944Z,1.00
2022-11-08T11:08:49.355Z,1.00
2022-11-08T11:09:52.928Z,1.00
2022-11-08T11:11:13.603Z,1.00
2022-11-08T11:12:15.751Z,1.00
2022-11-08T11:14:30.056Z,1.00
2022-11-08T11:15:38.789Z,1.00
2022-11-08T11:17:09.978Z,1.00
2022-11-08T11:18:36.930Z,1.00
2022-11-08T11:19:43.110Z,1.00
2022-11-08T11:21:17.741Z,1.00
2022-11-08T11:22:45.679Z,1.00
2022-11-08T11:23:53.394Z,1.00
2022-11-08T11:24:56.014Z,1.00
2022-11-08T11:25:58.696Z,1.00
2022-11-08T11:27:07.168Z,1.00
2022-11-08T11:28:14.174Z,1.00
2022-11-08T11:29:29.124Z,1.00
2022-11-08T11:30:35.625Z,1.00
2022-11-08T11:31:42.377Z,1.00
2022-11-08T11:32:56.529Z,1.00
2022-11-08T11:34:00.748Z,1.00
2022-11-08T11:35:05.931Z,1.00
2022-11-08T11:36:13.763Z,1.00
2022-11-08T11:37:22.582Z,1.00
2022-11-08T11:39:06.662Z,1.00
2022-11-08T11:40:11.434Z,1.00
2022-11-08T11:41:23.256Z,1.00
2022-11-08T11:42:45.846Z,1.00
2022-11-08T11:43:54.696Z,1.00
2022-11-08T11:44:59.211Z,1.00
2022-11-08T11:46:24.706Z,1.00
2022-11-08T11:47:55.531Z,1.00
2022-11-08T11:49:11.958Z,1.00
2022-11-08T11:50:31.935Z,1.00
2022-11-08T11:51:33.977Z,1.00
2022-11-08T11:52:35.888Z,1.00
2022-11-08T11:53:39.766Z,1.00
2022-11-08T11:54:43.750Z,1.00
2022-11-08T11:56:27.009Z,1.00
2022-11-08T11:57:31.851Z,1.00
2022-11-08T11:58:46.737Z,1.00
2022-11-08T12:00:13.980Z,1.00
2022-11-08T12:01:47.285Z,1.00
2022-11-08T12:03:12.461Z,1.00
2022-11-08T12:04:36.082Z,1.00
2022-11-08T12:06:14.917Z,1.00
2022-11-08T12:07:25.450Z,1.00
2022-11-08T12:08:57.662Z,1.00
2022-11-08T12:10:08.582Z,1.00
2022-11-08T12:11:34.811Z,1.00
2022-11-08T12:13:03.922Z,1.00
2022-11-08T12:14:17.460Z,1.00
2022-11-08T12:15:37.938Z,1.00
2022-11-08T12:17:03.181Z,1.00
2022-11-08T12:18:37.030Z,1.00
2022-11-08T12:20:08.579Z,1.00
2022-11-08T12:21:17.599Z,1.00
2022-11-08T12:22:25.025Z,1.00
2022-11-08T12:23:49.753Z,1.00
2022-11-08T12:25:07.391Z,1.00
2022-11-08T12:27:00.636Z,1.00
2022-11-08T12:28:25.002Z,1.00
2022-11-08T12:29:33.216Z,1.00
2022-11-08T12:31:01.279Z,1.00
2022-11-08T12:32:17.500Z,1.00
2022-11-08T12:33:46.787Z,1.00
2022-11-08T12:35:10.765Z,1.00
2022-11-08T12:36:33.957Z,1.00
2022-11-08T12:37:56.153Z,1.00
2022-11-08T12:39:05.417Z,1.00
2022-11-08T12:40:52.572Z,1.00
2022-11-08T12:42:09.575Z,1.00
2022-11-08T12:43:33.082Z,1.00
2022-11-08T12:45:17.559Z,1.00
2022-11-08T12:46:20.934Z,1.00
2022-11-08T12:47:38.700Z,1.00
2022-11-08T12:49:02.180Z,1.00
2022-11-08T12:50:33.851Z,1.00
2022-11-08T12:51:35.802Z,1.00
2022-11-08T12:52:49.190Z,1.00
2022-11-08T12:53:56.910Z,1.00
2022-11-08T12:55:02.713Z,1.00
2022-11-08T12:56:11.103Z,1.00
2022-11-08T12:57:26.232Z,1.00
2022-11-08T12:58:41.019Z,1.00
2022-11-08T13:00:02.010Z,1.00
2022-11-08T13:01:08.092Z,1.00
2022-11-08T13:02:38.158Z,1.00
2022-11-08T13:03:51.612Z,1.00
2022-11-08T13:04:59.817Z,1.00
2022-11-08T13:06:08.815Z,1.00
2022-11-08T13:07:32.841Z,1.00
2022-11-08T13:08:48.277Z,1.00
2022-11-08T13:10:12.343Z,1.00
2022-11-08T13:11:24.751Z,1.00
2022-11-08T13:13:16.499Z,1.00
2022-11-08T13:14:20.097Z,1.00
2022-11-08T13:15:28.846Z,1.00
2022-11-08T13:16:39.391Z,1.00
2022-11-08T13:17:43.444Z,1.00
2022-11-08T13:18:55.027Z,1.00
2022-11-08T13:20:05.586Z,1.00
2022-11-08T13:21:42.390Z,1.00
2022-11-08T13:22:50.248Z,1.00
2022-11-08T13:23:53.863Z,1.00
2022-11-08T13:24:56.737Z,1.00
2022-11-08T13:26:19.885Z,1.00
2022-11-08T13:27:45.371Z,1.00
2022-11-08T13:28:47.873Z,1.00
2022-11-08T13:29:51.487Z,1.00
2022-11-08T13:31:03.937Z,1.00
2022-11-08T13:32:24.783Z,1.00
2022-11-08T13:33:30.081Z,1.00
2022-11-08T13:34:43.358Z,1.00
2022-11-08T13:36:09.849Z,1.00
2022-11-08T13:37:41.786Z,1.00
2022-11-08T13:39:12.993Z,1.00
2022-11-08T13:40:27.032Z,1.00
2022-11-08T13:41:28.797Z,1.00
2022-11-08T13:42:36.229Z,1.00
2022-11-08T13:43:39.103Z,1.00
2022-11-08T13:44:58.372Z,1.00
2022-11-08T13:46:20.494Z,1.00
2022-11-08T13:47:34.549Z,1.00
2022-11-08T13:49:04.140Z,1.00
2022-11-08T13:50:34.416Z,1.00
2022-11-08T13:51:45.713Z,1.00
2022-11-08T13:53:32.499Z,1.00
2022-11-08T13:54:50.451Z,1.00
2022-11-08T13:56:14.356Z,1.00
2022-11-08T13:57:22.275Z,1.00
2022-11-08T13:58:33.629Z,1.00
2022-11-08T13:59:35.625Z,1.00
2022-11-08T14:00:47.420Z,1.00
2022-11-08T14:01:49.434Z,1.00
2022-11-08T14:02:54.124Z,1.00
2022-11-08T14:04:01.095Z,1.00
2022-11-08T14:05:22.180Z,1.00
2022-11-08T14:06:36.136Z,1.00
2022-11-08T14:07:47.686Z,1.00
2022-11-08T14:09:01.260Z,1.00
2022-11-08T14:10:17.123Z,1.00
2022-11-08T14:11:27.541Z,1.00
2022-11-08T14:13:01.570Z,1.00
2022-11-08T14:14:16.976Z,1.00
2022-11-08T14:15:27.816Z,1.00
2022-11-08T14:16:41.901Z,1.00
2022-11-08T14:17:47.900Z,1.00
2022-11-08T14:18:49.987Z,1.00
2022-11-08T14:19:53.432Z,1.00
2022-11-08T14:20:56.286Z,1.00
2022-11-08T14:22:00.095Z,1.00
2022-11-08T14:23:39.332Z,1.00
2022-11-08T14:24:41.528Z,1.00
2022-11-08T14:25:48.551Z,1.00
2022-11-08T14:26:50.396Z,1.00
2022-11-08T14:27:52.112Z,1.00
2022-11-08T14:28:54.233Z,1.00
2022-11-08T14:30:01.015Z,1.00
2022-11-08T14:31:07.839Z,1.00
2022-11-08T14:32:17.138Z,1.00
2022-11-08T14:33:22.215Z,1.00
2022-11-08T14:34:50.904Z,1.00
2022-11-08T14:36:07.368Z,1.00
2022-11-08T14:37:25.913Z,1.00
2022-11-08T14:38:29.649Z,1.00
2022-11-08T14:39:37.030Z,1.00
2022-11-08T14:40:39.048Z,1.00
2022-11-08T14:41:46.223Z,1.00
2022-11-08T14:42:49.154Z,1.00
2022-11-08T14:43:52.716Z,1.00
2022-11-08T14:44:57.351Z,1.00
2022-11-08T14:46:08.977Z,1.00
2022-11-08T14:47:24.068Z,1.00
2022-11-08T14:48:30.846Z,1.00
2022-11-08T14:49:35.469Z,1.00
2022-11-08T14:50:37.236Z,1.00
2022-11-08T14:51:39.913Z,1.00
2022-11-08T14:52:41.672Z,1.00
2022-11-08T14:53:50.744Z,1.00
2022-11-08T14:55:00.247Z,1.00
2022-11-08T14:56:15.892Z,1.00
2022-11-08T14:57:37.744Z,1.00
2022-11-08T14:58:39.840Z,1.00
2022-11-08T14:59:42.033Z,1.00
2022-11-08T15:00:47.781Z,1.00
2022-11-08T15:01:50.804Z,1.00